Terminal Aerodrome Forecast
Issued by NWS

Home | Current Version | Previous Version | Text Only | Print | Product List | Glossary On
Versions: 1 2 3 4 5 6 7 8 9 10 11 12 13 14 15 16 17 18 19 20 21 22 23 24 25 26 27
000
FTUS44 KMAF 231400 AAA
TAFPEQ
TAF AMD
KPEQ 231422Z 2314/2412 14006KT P6SM BKN150
      TEMPO 2314/2316 5SM BR
     FM231800 18011KT P6SM BKN030 OVC100
     FM232200 12014KT P6SM BKN050 OVC150
      TEMPO 2322/2402 4SM TSRA OVC025CB=

USA.gov is the U.S. government's official web portal to all federal, state and local government web resources and services.